Weather History for Omaha Millard, NE

Change the Weather History Date:

Tuesday, February 19, 2013

  Actual Average (KOMA) Record (KOMA)
Temperature  
Mean Temperature 18 °F 29 °F  
Max Temperature 25 °F 39 °F 70 °F (1930)
Min Temperature 10 °F 19 °F -16 °F (1936)
Degree Days  
Heating Degree Days 48 36  
Month to date heating degree days 728  
Since 1 July heating degree days 4493  
Cooling Degree Days 0 0  
Month to date cooling degree days 0  
Year to date cooling degree days 0  
Moisture  
Dew Point 4 °F    
Average Humidity 57    
Maximum Humidity 74    
Minimum Humidity 33    
Precipitation  
Precipitation 0.00 in 0.03 in 1.75 in (1954)
Month to date precipitation 0.53  
Year to date precipitation 1.25  
Snow  
Snow 0.00 in 0.20 in - ()
Month to date snowfall 4.4  
Since 1 July snowfall 19.5  
Snow Depth -    
Sea Level Pressure  
Sea Level Pressure 30.27 in    
Wind  
Wind Speed 14 mph (NW)    
Max Wind Speed 22 mph    
Max Gust Speed 33 mph    
Visibility 10 miles    
Events      
T = Trace of Precipitation, MM = Missing Value Source: NWS Daily Summary

Daily Weather History Graph

Daily Weather History Graph

Search for Another Location

Airport:

Trip Planner

Search our weather history database for the weather conditions in past years. The results will help you decide how hot, cold, wet, or windy it might be!

Date:

Astronomy

Feb. 19, 2013 Rise Set
Actual Time 7:13 AM CST 6:03 PM CST
Civil Twilight 6:45 AM CST 6:31 PM CST
Nautical Twilight 6:13 AM CST 7:04 PM CST
Astronomical Twilight 5:41 AM CST 7:35 PM CST
Moon 12:34 PM CST (2/19) 2:47 AM CST (2/19)
Length of Visible Light 11h 46m
Length of Day
10h 50m
Waxing Gibbous, 67% of the Moon is Illuminated
Feb 19
Waxing Gibbous
Feb 25
Full
Mar 4
Last Quarter
Mar 11
New
Mar 19
First Quarter

Hourly Weather History & Observations

Time (CST) Temp. Windchill Dew Point Humidity Pressure Visibility Wind Dir Wind Speed Gust Speed Precip Events Conditions
12:15 AM 23.2 °F 10.3 °F 15.4 °F 72% 30.07 in 10.0 mi NW 15.0 mph 26.5 mph N/A   Overcast
12:35 AM 22.5 °F 8.5 °F 14.5 °F 72% 30.08 in 10.0 mi NW 17.3 mph 31.1 mph N/A   Scattered Clouds
12:55 AM 21.2 °F 8.3 °F 12.9 °F 70% 30.09 in 10.0 mi NW 13.8 mph 26.5 mph N/A   Clear
1:15 AM 20.1 °F 6.4 °F 11.7 °F 70% 30.10 in 10.0 mi NW 15.0 mph 24.2 mph N/A   Clear
1:35 AM 18.9 °F 2.1 °F 9.9 °F 68% 30.12 in 10.0 mi NW 21.9 mph 33.4 mph N/A   Clear
1:55 AM 17.8 °F 1.5 °F 9.5 °F 70% 30.12 in 10.0 mi NW 19.6 mph 27.6 mph N/A   Clear
2:15 AM 17.2 °F 2.2 °F 8.6 °F 69% 30.13 in 10.0 mi NW 16.1 mph 27.6 mph N/A   Clear
2:35 AM 16.9 °F 1.7 °F 8.4 °F 69% 30.13 in 10.0 mi NW 16.1 mph 23.0 mph N/A   Clear
2:55 AM 16.2 °F 0.8 °F 7.3 °F 68% 30.14 in 10.0 mi NW 16.1 mph 25.3 mph N/A   Clear
3:15 AM 15.4 °F 1.0 °F 7.3 °F 70% 30.15 in 10.0 mi NW 13.8 mph 29.9 mph N/A   Clear
3:35 AM 14.7 °F 1.4 °F 7.7 °F 74% 30.15 in 10.0 mi NNW 11.5 mph 18.4 mph N/A   Clear
3:55 AM 14.0 °F -2.0 °F 6.8 °F 73% 30.16 in 10.0 mi NW 16.1 mph 25.3 mph N/A   Clear
4:15 AM 13.3 °F -0.5 °F 6.4 °F 74% 30.16 in 10.0 mi NW 11.5 mph 20.7 mph N/A   Clear
4:35 AM 12.9 °F -2.2 °F 6.1 °F 74% 30.17 in 10.0 mi NW 13.8 mph 19.6 mph N/A   Scattered Clouds
4:55 AM 12.2 °F -3.7 °F 5.4 °F 74% 30.18 in 10.0 mi NW 15.0 mph 23.0 mph N/A   Clear
5:15 AM 12.0 °F -2.7 °F 4.5 °F 72% 30.19 in 10.0 mi NW 12.7 mph 20.7 mph N/A   Clear
6:15 AM 10.9 °F -5.9 °F 3.4 °F 72% 30.21 in 10.0 mi NW 16.1 mph 24.2 mph N/A   Clear
6:35 AM 10.9 °F -4.7 °F 3.6 °F 72% 30.22 in 10.0 mi NW 13.8 mph 23.0 mph N/A   Clear
6:55 AM 10.8 °F -5.0 °F 3.4 °F 72% 30.22 in 10.0 mi NW 13.8 mph 25.3 mph N/A   Clear
7:15 AM 10.4 °F -4.8 °F 3.2 °F 73% 30.23 in 10.0 mi NW 12.7 mph 18.4 mph N/A   Clear
7:35 AM 10.2 °F -8.9 °F 2.7 °F 72% 30.26 in 10.0 mi NW 20.7 mph 25.3 mph N/A   Clear
7:55 AM 10.4 °F -5.4 °F 3.0 °F 72% 30.28 in 10.0 mi NW 13.8 mph 19.6 mph N/A   Clear
8:15 AM 10.8 °F -7.7 °F 2.8 °F 70% 30.28 in 10.0 mi NW 19.6 mph 29.9 mph N/A   Scattered Clouds
8:35 AM 10.9 °F -6.5 °F 2.3 °F 68% 30.30 in 10.0 mi NW 17.3 mph 25.3 mph N/A   Scattered Clouds
8:55 AM 11.3 °F -4.3 °F 2.1 °F 67% 30.31 in 10.0 mi NNW 13.8 mph 27.6 mph N/A   Clear
9:15 AM 12.2 °F -2.5 °F 2.7 °F 66% 30.31 in 10.0 mi NW 12.7 mph 18.4 mph N/A   Scattered Clouds
9:35 AM 12.6 °F -4.4 °F 2.5 °F 64% 30.32 in 10.0 mi NW 17.3 mph 23.0 mph N/A   Scattered Clouds
9:55 AM 13.1 °F -4.2 °F 2.3 °F 62% 30.32 in 10.0 mi NW 18.4 mph 25.3 mph N/A   Scattered Clouds
10:15 AM 14.4 °F -0.4 °F 3.2 °F 61% 30.32 in 10.0 mi NW 13.8 mph 23.0 mph N/A   Clear
10:35 AM 14.9 °F -0.3 °F 3.0 °F 59% 30.32 in 10.0 mi NW 15.0 mph 23.0 mph N/A   Clear
10:55 AM 15.8 °F 2.1 °F 3.2 °F 58% 30.33 in 10.0 mi NW 12.7 mph 24.2 mph N/A   Clear
11:15 AM 17.2 °F 3.9 °F 3.7 °F 56% 30.33 in 10.0 mi NNW 12.7 mph 19.6 mph N/A   Clear
11:35 AM 18.5 °F 6.1 °F 4.1 °F 54% 30.33 in 10.0 mi NNW 11.5 mph 18.4 mph N/A   Clear
11:55 AM 19.2 °F 5.3 °F 4.1 °F 52% 30.33 in 10.0 mi NW 15.0 mph 24.2 mph N/A   Clear
12:15 PM 20.5 °F 6.9 °F 4.1 °F 49% 30.33 in 10.0 mi NW 15.0 mph 20.7 mph N/A   Clear
12:35 PM 21.2 °F 8.3 °F 4.1 °F 48% 30.32 in 10.0 mi NW 13.8 mph 24.2 mph N/A   Clear
12:55 PM 22.6 °F 9.6 °F 4.1 °F 45% 30.32 in 10.0 mi WNW 15.0 mph 20.7 mph N/A   Clear
1:15 PM 23.0 °F 10.6 °F 3.2 °F 43% 30.32 in 10.0 mi WNW 13.8 mph 24.2 mph N/A   Clear
1:35 PM 22.8 °F 10.9 °F 2.7 °F 42% 30.31 in 10.0 mi NW 12.7 mph 21.9 mph N/A   Clear
1:55 PM 24.4 °F 10.6 °F 1.4 °F 37% 30.30 in 10.0 mi NW 18.4 mph 24.2 mph N/A   Clear
2:15 PM 24.6 °F 12.2 °F 1.2 °F 36% 30.30 in 10.0 mi NW 15.0 mph 21.9 mph N/A   Clear
2:35 PM 25.5 °F 13.3 °F 1.9 °F 36% 30.30 in 10.0 mi NW 15.0 mph 23.0 mph N/A   Clear
2:55 PM 25.7 °F 14.6 °F 1.9 °F 36% 30.30 in 10.0 mi NW 12.7 mph 21.9 mph N/A   Clear
3:15 PM 25.3 °F 14.1 °F 0.3 °F 34% 30.30 in 10.0 mi NW 12.7 mph 19.6 mph N/A   Clear
3:35 PM 25.9 °F 14.3 °F 1.0 °F 34% 30.30 in 10.0 mi NNW 13.8 mph 19.6 mph N/A   Clear
3:55 PM 25.9 °F 13.3 °F 1.8 °F 35% 30.30 in 10.0 mi WNW 16.1 mph - N/A   Clear
4:15 PM 25.7 °F 15.7 °F -0.0 °F 33% 30.30 in 10.0 mi NNW 10.4 mph - N/A   Clear
4:35 PM 25.9 °F 16.0 °F 0.7 °F 34% 30.30 in 10.0 mi NNW 10.4 mph 17.3 mph N/A   Clear
4:55 PM 25.3 °F 14.7 °F 0.3 °F 34% 30.30 in 10.0 mi NNW 11.5 mph - N/A   Clear
5:15 PM 24.8 °F 14.6 °F 0.1 °F 34% 30.30 in 10.0 mi NW 10.4 mph 16.1 mph N/A   Clear
6:35 PM 21.9 °F 12.5 °F -0.2 °F 38% 30.30 in 10.0 mi NNW 8.1 mph - N/A   Clear
6:55 PM 21.2 °F 11.7 °F 0.3 °F 40% 30.32 in 10.0 mi NNW 8.1 mph - N/A   Clear
7:15 PM 20.3 °F 12.5 °F 0.7 °F 43% 30.31 in 10.0 mi NNW 5.8 mph - N/A   Clear
7:35 PM 19.8 °F 11.9 °F 2.3 °F 47% 30.32 in 10.0 mi NW 5.8 mph - N/A   Clear
7:55 PM 19.2 °F 12.5 °F 3.0 °F 49% 30.32 in 10.0 mi NNW 4.6 mph - N/A   Clear
8:15 PM 18.5 °F 10.4 °F 2.8 °F 51% 30.33 in 10.0 mi NW 5.8 mph - N/A   Clear
8:35 PM 17.8 °F 8.5 °F 3.2 °F 53% 30.32 in 10.0 mi NNW 6.9 mph - N/A   Clear
8:55 PM 17.1 °F 7.6 °F 3.0 °F 54% 30.32 in 10.0 mi North 6.9 mph - N/A   Clear
9:15 PM 16.7 °F 11.2 °F 3.2 °F 55% 30.33 in 10.0 mi North 3.5 mph - N/A   Clear
9:55 PM 15.1 °F 6.4 °F 2.7 °F 58% 30.35 in 10.0 mi North 5.8 mph - N/A   Clear
10:15 PM 14.7 °F 7.3 °F 2.5 °F 58% 30.37 in 10.0 mi NW 4.6 mph - N/A   Clear
10:35 PM 14.5 °F 8.8 °F 2.7 °F 59% 30.37 in 10.0 mi NNW 3.5 mph - N/A   Clear
10:55 PM 13.8 °F 6.2 °F 2.3 °F 60% 30.35 in 10.0 mi North 4.6 mph - N/A   Clear
11:15 PM 13.1 °F 5.4 °F 2.3 °F 62% 30.38 in 10.0 mi NW 4.6 mph - N/A   Clear
11:35 PM 13.1 °F 5.4 °F 2.7 °F 63% 30.37 in 10.0 mi North 4.6 mph - N/A   Clear
11:55 PM 12.2 °F 6.1 °F 2.3 °F 65% 30.38 in 10.0 mi NW 3.5 mph - N/A   Clear